sensor_id;sensor_type;location;lat;lon;timestamp;temperature;humidity
60860;DHT22;46694;54.382;9.708;2022-09-01T00:00:26;15.30;97.00
60860;DHT22;46694;54.382;9.708;2022-09-01T00:03:07;15.20;97.00
60860;DHT22;46694;54.382;9.708;2022-09-01T00:05:51;15.30;97.10
60860;DHT22;46694;54.382;9.708;2022-09-01T00:08:33;15.20;97.10
60860;DHT22;46694;54.382;9.708;2022-09-01T00:11:12;15.20;97.10
60860;DHT22;46694;54.382;9.708;2022-09-01T00:13:53;15.20;97.20
60860;DHT22;46694;54.382;9.708;2022-09-01T00:16:33;15.20;97.20
60860;DHT22;46694;54.382;9.708;2022-09-01T00:19:13;15.10;97.30
60860;DHT22;46694;54.382;9.708;2022-09-01T00:21:53;15.10;97.30
60860;DHT22;46694;54.382;9.708;2022-09-01T00:24:34;15.10;97.40
60860;DHT22;46694;54.382;9.708;2022-09-01T00:27:14;15.00;97.40
60860;DHT22;46694;54.382;9.708;2022-09-01T00:29:53;15.00;97.50
60860;DHT22;46694;54.382;9.708;2022-09-01T00:32:33;15.00;97.50
60860;DHT22;46694;54.382;9.708;2022-09-01T00:35:14;15.00;97.60
60860;DHT22;46694;54.382;9.708;2022-09-01T00:37:55;15.00;98.00
60860;DHT22;46694;54.382;9.708;2022-09-01T00:40:34;15.00;97.80
60860;DHT22;46694;54.382;9.708;2022-09-01T00:46:23;14.90;98.00
60860;DHT22;46694;54.382;9.708;2022-09-01T00:49:07;14.90;98.00
60860;DHT22;46694;54.382;9.708;2022-09-01T00:51:53;14.90;98.10
60860;DHT22;46694;54.382;9.708;2022-09-01T00:54:38;14.80;98.20
60860;DHT22;46694;54.382;9.708;2022-09-01T00:57:20;14.80;98.30
60860;DHT22;46694;54.382;9.708;2022-09-01T01:00:17;14.80;98.30
60860;DHT22;46694;54.382;9.708;2022-09-01T01:03:02;14.80;98.50
60860;DHT22;46694;54.382;9.708;2022-09-01T01:05:48;14.80;98.50
60860;DHT22;46694;54.382;9.708;2022-09-01T01:08:35;14.80;98.60
60860;DHT22;46694;54.382;9.708;2022-09-01T01:11:16;14.80;98.60
60860;DHT22;46694;54.382;9.708;2022-09-01T01:14:04;14.70;98.60
60860;DHT22;46694;54.382;9.708;2022-09-01T01:16:50;14.80;98.70
60860;DHT22;46694;54.382;9.708;2022-09-01T01:25:45;14.70;98.90
60860;DHT22;46694;54.382;9.708;2022-09-01T01:29:02;14.70;98.90
60860;DHT22;46694;54.382;9.708;2022-09-01T01:31:41;14.70;99.10
60860;DHT22;46694;54.382;9.708;2022-09-01T01:34:21;14.60;99.10
60860;DHT22;46694;54.382;9.708;2022-09-01T01:37:01;14.70;99.20
60860;DHT22;46694;54.382;9.708;2022-09-01T01:39:41;14.60;99.30
60860;DHT22;46694;54.382;9.708;2022-09-01T01:42:22;14.70;99.40
60860;DHT22;46694;54.382;9.708;2022-09-01T01:45:05;14.70;99.40
60860;DHT22;46694;54.382;9.708;2022-09-01T01:47:48;14.70;99.50
60860;DHT22;46694;54.382;9.708;2022-09-01T01:50:32;14.70;99.50
60860;DHT22;46694;54.382;9.708;2022-09-01T01:53:14;14.70;99.50
60860;DHT22;46694;54.382;9.708;2022-09-01T01:55:55;14.70;99.90
60860;DHT22;46694;54.382;9.708;2022-09-01T01:58:37;14.70;99.60
60860;DHT22;46694;54.382;9.708;2022-09-01T02:01:17;14.70;99.70
60860;DHT22;46694;54.382;9.708;2022-09-01T02:03:59;14.70;99.80
60860;DHT22;46694;54.382;9.708;2022-09-01T02:06:41;14.60;99.80
60860;DHT22;46694;54.382;9.708;2022-09-01T02:09:24;14.60;99.80
60860;DHT22;46694;54.382;9.708;2022-09-01T02:12:04;14.60;99.80
60860;DHT22;46694;54.382;9.708;2022-09-01T02:14:45;14.60;99.90
60860;DHT22;46694;54.382;9.708;2022-09-01T02:17:26;14.60;99.90
60860;DHT22;46694;54.382;9.708;2022-09-01T02:20:06;14.60;99.90
60860;DHT22;46694;54.382;9.708;2022-09-01T02:22:45;14.50;99.90
60860;DHT22;46694;54.382;9.708;2022-09-01T02:25:25;14.50;99.90
60860;DHT22;46694;54.382;9.708;2022-09-01T02:28:05;14.50;99.90
60860;DHT22;46694;54.382;9.708;2022-09-01T02:30:49;14.50;99.90
60860;DHT22;46694;54.382;9.708;2022-09-01T02:33:31;14.50;99.90
60860;DHT22;46694;54.382;9.708;2022-09-01T02:36:14;14.60;99.90
60860;DHT22;46694;54.382;9.708;2022-09-01T02:38:55;14.60;99.90
60860;DHT22;46694;54.382;9.708;2022-09-01T02:41:35;14.60;99.90
60860;DHT22;46694;54.382;9.708;2022-09-01T02:44:15;14.60;99.90
60860;DHT22;46694;54.382;9.708;2022-09-01T02:47:00;14.70;99.90
60860;DHT22;46694;54.382;9.708;2022-09-01T02:49:39;14.70;99.90
60860;DHT22;46694;54.382;9.708;2022-09-01T02:52:21;14.70;99.90
60860;DHT22;46694;54.382;9.708;2022-09-01T02:55:00;14.70;99.90
60860;DHT22;46694;54.382;9.708;2022-09-01T02:57:41;14.70;99.90
60860;DHT22;46694;54.382;9.708;2022-09-01T03:00:21;14.70;99.90
60860;DHT22;46694;54.382;9.708;2022-09-01T03:03:07;14.80;99.90
60860;DHT22;46694;54.382;9.708;2022-09-01T03:05:50;14.80;99.90
60860;DHT22;46694;54.382;9.708;2022-09-01T03:08:33;14.80;99.90
60860;DHT22;46694;54.382;9.708;2022-09-01T03:11:17;14.80;99.90
60860;DHT22;46694;54.382;9.708;2022-09-01T03:13:58;14.90;99.90
60860;DHT22;46694;54.382;9.708;2022-09-01T03:16:38;14.90;99.90
60860;DHT22;46694;54.382;9.708;2022-09-01T03:19:18;14.90;99.90
60860;DHT22;46694;54.382;9.708;2022-09-01T03:21:58;15.00;99.90
60860;DHT22;46694;54.382;9.708;2022-09-01T03:24:38;15.00;99.90
60860;DHT22;46694;54.382;9.708;2022-09-01T03:27:17;15.10;99.90
60860;DHT22;46694;54.382;9.708;2022-09-01T03:29:57;15.10;99.90
60860;DHT22;46694;54.382;9.708;2022-09-01T03:32:37;15.10;99.90
60860;DHT22;46694;54.382;9.708;2022-09-01T03:35:16;15.10;99.90
60860;DHT22;46694;54.382;9.708;2022-09-01T03:37:56;15.10;99.90
60860;DHT22;46694;54.382;9.708;2022-09-01T03:40:39;15.10;99.90
60860;DHT22;46694;54.382;9.708;2022-09-01T03:43:19;15.10;99.90
60860;DHT22;46694;54.382;9.708;2022-09-01T03:46:02;15.10;99.90
60860;DHT22;46694;54.382;9.708;2022-09-01T03:48:42;15.10;99.90
60860;DHT22;46694;54.382;9.708;2022-09-01T03:51:23;15.10;99.90
60860;DHT22;46694;54.382;9.708;2022-09-01T03:54:03;15.10;99.90
60860;DHT22;46694;54.382;9.708;2022-09-01T03:56:42;15.10;99.90
60860;DHT22;46694;54.382;9.708;2022-09-01T03:59:23;15.10;99.90
60860;DHT22;46694;54.382;9.708;2022-09-01T04:02:03;15.10;99.90
60860;DHT22;46694;54.382;9.708;2022-09-01T04:04:43;15.10;99.90
60860;DHT22;46694;54.382;9.708;2022-09-01T04:07:23;15.10;99.90
60860;DHT22;46694;54.382;9.708;2022-09-01T04:10:04;15.20;99.90
60860;DHT22;46694;54.382;9.708;2022-09-01T04:12:45;15.20;99.90
60860;DHT22;46694;54.382;9.708;2022-09-01T04:15:26;15.20;99.90
60860;DHT22;46694;54.382;9.708;2022-09-01T04:18:06;15.20;99.90
60860;DHT22;46694;54.382;9.708;2022-09-01T04:20:54;15.20;99.90
60860;DHT22;46694;54.382;9.708;2022-09-01T04:23:37;15.30;99.90
60860;DHT22;46694;54.382;9.708;2022-09-01T04:26:17;15.30;99.90
60860;DHT22;46694;54.382;9.708;2022-09-01T04:28:58;15.30;99.90
60860;DHT22;46694;54.382;9.708;2022-09-01T04:31:38;15.30;99.90
60860;DHT22;46694;54.382;9.708;2022-09-01T04:34:21;15.30;99.90
60860;DHT22;46694;54.382;9.708;2022-09-01T04:37:13;15.30;99.90
60860;DHT22;46694;54.382;9.708;2022-09-01T04:39:56;15.30;99.90
60860;DHT22;46694;54.382;9.708;2022-09-01T04:42:36;15.40;99.90
60860;DHT22;46694;54.382;9.708;2022-09-01T04:45:16;15.40;99.90
60860;DHT22;46694;54.382;9.708;2022-09-01T04:47:57;15.40;99.90
60860;DHT22;46694;54.382;9.708;2022-09-01T04:50:39;15.50;99.90
60860;DHT22;46694;54.382;9.708;2022-09-01T04:53:19;15.60;99.90
60860;DHT22;46694;54.382;9.708;2022-09-01T04:56:02;15.70;99.90
60860;DHT22;46694;54.382;9.708;2022-09-01T04:58:42;15.70;99.90
60860;DHT22;46694;54.382;9.708;2022-09-01T05:01:25;15.80;99.90
60860;DHT22;46694;54.382;9.708;2022-09-01T05:04:05;15.90;99.90
60860;DHT22;46694;54.382;9.708;2022-09-01T05:06:51;16.00;99.90
60860;DHT22;46694;54.382;9.708;2022-09-01T05:09:37;16.10;99.90
60860;DHT22;46694;54.382;9.708;2022-09-01T05:12:17;16.20;99.90
60860;DHT22;46694;54.382;9.708;2022-09-01T05:15:00;16.30;99.90
60860;DHT22;46694;54.382;9.708;2022-09-01T05:17:44;16.50;99.90
60860;DHT22;46694;54.382;9.708;2022-09-01T05:20:24;16.60;99.90
60860;DHT22;46694;54.382;9.708;2022-09-01T05:23:03;16.80;99.90
60860;DHT22;46694;54.382;9.708;2022-09-01T05:25:43;17.00;99.90
60860;DHT22;46694;54.382;9.708;2022-09-01T05:28:24;17.20;99.90
60860;DHT22;46694;54.382;9.708;2022-09-01T05:31:05;17.30;99.90
60860;DHT22;46694;54.382;9.708;2022-09-01T05:33:46;17.50;99.90
60860;DHT22;46694;54.382;9.708;2022-09-01T05:36:28;17.70;99.90
60860;DHT22;46694;54.382;9.708;2022-09-01T05:39:11;17.90;99.90
60860;DHT22;46694;54.382;9.708;2022-09-01T05:41:51;18.20;99.90
60860;DHT22;46694;54.382;9.708;2022-09-01T05:44:31;18.40;99.90
60860;DHT22;46694;54.382;9.708;2022-09-01T05:47:12;18.60;99.90
60860;DHT22;46694;54.382;9.708;2022-09-01T05:49:51;18.80;99.90
60860;DHT22;46694;54.382;9.708;2022-09-01T05:52:33;19.10;99.90
60860;DHT22;46694;54.382;9.708;2022-09-01T05:55:13;19.30;99.90
60860;DHT22;46694;54.382;9.708;2022-09-01T05:57:53;19.60;99.90
60860;DHT22;46694;54.382;9.708;2022-09-01T06:00:33;19.70;99.90
60860;DHT22;46694;54.382;9.708;2022-09-01T06:03:17;20.00;99.60
60860;DHT22;46694;54.382;9.708;2022-09-01T06:06:02;20.20;99.10
60860;DHT22;46694;54.382;9.708;2022-09-01T06:08:43;20.50;98.80
60860;DHT22;46694;54.382;9.708;2022-09-01T06:11:27;20.70;98.30
60860;DHT22;46694;54.382;9.708;2022-09-01T06:14:10;20.80;97.60
60860;DHT22;46694;54.382;9.708;2022-09-01T06:16:49;21.00;97.10
60860;DHT22;46694;54.382;9.708;2022-09-01T06:19:30;21.20;96.70
60860;DHT22;46694;54.382;9.708;2022-09-01T06:22:11;21.30;95.70
60860;DHT22;46694;54.382;9.708;2022-09-01T06:24:51;21.20;95.10
60860;DHT22;46694;54.382;9.708;2022-09-01T06:27:33;21.20;94.90
60860;DHT22;46694;54.382;9.708;2022-09-01T06:30:17;21.30;94.40
60860;DHT22;46694;54.382;9.708;2022-09-01T06:33:03;21.50;94.20
60860;DHT22;46694;54.382;9.708;2022-09-01T06:35:47;21.80;94.20
60860;DHT22;46694;54.382;9.708;2022-09-01T06:38:27;22.30;93.70
60860;DHT22;46694;54.382;9.708;2022-09-01T06:41:07;22.70;93.60
60860;DHT22;46694;54.382;9.708;2022-09-01T06:43:50;23.20;92.40
60860;DHT22;46694;54.382;9.708;2022-09-01T06:46:33;23.50;91.40
60860;DHT22;46694;54.382;9.708;2022-09-01T06:49:13;23.60;90.70
60860;DHT22;46694;54.382;9.708;2022-09-01T06:51:52;23.50;90.50
60860;DHT22;46694;54.382;9.708;2022-09-01T06:54:32;23.20;90.50
60860;DHT22;46694;54.382;9.708;2022-09-01T06:57:12;23.10;90.60
60860;DHT22;46694;54.382;9.708;2022-09-01T06:59:52;22.90;90.70
60860;DHT22;46694;54.382;9.708;2022-09-01T07:02:32;22.80;90.80
60860;DHT22;46694;54.382;9.708;2022-09-01T07:05:12;22.70;90.90
60860;DHT22;46694;54.382;9.708;2022-09-01T07:07:57;22.50;91.00
60860;DHT22;46694;54.382;9.708;2022-09-01T07:10:46;22.40;91.10
60860;DHT22;46694;54.382;9.708;2022-09-01T07:13:28;22.30;91.00
60860;DHT22;46694;54.382;9.708;2022-09-01T07:16:16;22.20;91.00
60860;DHT22;46694;54.382;9.708;2022-09-01T07:19:02;22.10;90.80
60860;DHT22;46694;54.382;9.708;2022-09-01T07:21:42;22.10;90.60
60860;DHT22;46694;54.382;9.708;2022-09-01T07:24:22;22.10;90.50
60860;DHT22;46694;54.382;9.708;2022-09-01T07:27:04;22.10;90.40
60860;DHT22;46694;54.382;9.708;2022-09-01T07:29:43;22.10;90.50
60860;DHT22;46694;54.382;9.708;2022-09-01T07:32:23;22.10;90.60
60860;DHT22;46694;54.382;9.708;2022-09-01T07:35:04;22.00;90.60
60860;DHT22;46694;54.382;9.708;2022-09-01T07:37:47;22.00;90.60
60860;DHT22;46694;54.382;9.708;2022-09-01T07:40:27;22.10;90.70
60860;DHT22;46694;54.382;9.708;2022-09-01T07:43:14;22.10;90.60
60860;DHT22;46694;54.382;9.708;2022-09-01T07:45:56;22.30;90.70
60860;DHT22;46694;54.382;9.708;2022-09-01T07:48:37;22.60;90.50
60860;DHT22;46694;54.382;9.708;2022-09-01T07:51:19;22.60;90.30
60860;DHT22;46694;54.382;9.708;2022-09-01T07:53:59;22.60;90.20
60860;DHT22;46694;54.382;9.708;2022-09-01T07:56:40;22.50;90.20
60860;DHT22;46694;54.382;9.708;2022-09-01T07:59:19;22.30;90.40
60860;DHT22;46694;54.382;9.708;2022-09-01T08:01:59;22.20;90.60
60860;DHT22;46694;54.382;9.708;2022-09-01T08:04:43;22.10;90.80
60860;DHT22;46694;54.382;9.708;2022-09-01T08:07:24;22.00;91.00
60860;DHT22;46694;54.382;9.708;2022-09-01T08:10:07;21.90;91.10
60860;DHT22;46694;54.382;9.708;2022-09-01T08:12:48;21.60;91.20
60860;DHT22;46694;54.382;9.708;2022-09-01T08:15:27;21.50;91.30
60860;DHT22;46694;54.382;9.708;2022-09-01T08:18:07;21.40;91.50
60860;DHT22;46694;54.382;9.708;2022-09-01T08:20:47;21.30;91.70
60860;DHT22;46694;54.382;9.708;2022-09-01T08:23:27;21.20;91.80
60860;DHT22;46694;54.382;9.708;2022-09-01T08:26:08;21.20;92.00
60860;DHT22;46694;54.382;9.708;2022-09-01T08:28:50;21.10;92.10
60860;DHT22;46694;54.382;9.708;2022-09-01T08:31:30;21.10;92.20
60860;DHT22;46694;54.382;9.708;2022-09-01T08:34:10;21.10;92.20
60860;DHT22;46694;54.382;9.708;2022-09-01T08:36:51;21.10;92.20
60860;DHT22;46694;54.382;9.708;2022-09-01T08:39:31;21.10;92.30
60860;DHT22;46694;54.382;9.708;2022-09-01T08:45:22;21.10;92.40
60860;DHT22;46694;54.382;9.708;2022-09-01T08:48:20;21.20;92.50
60860;DHT22;46694;54.382;9.708;2022-09-01T08:57:07;21.10;92.50
60860;DHT22;46694;54.382;9.708;2022-09-01T08:59:51;21.00;92.30
60860;DHT22;46694;54.382;9.708;2022-09-01T09:02:51;20.90;92.30
60860;DHT22;46694;54.382;9.708;2022-09-01T09:06:09;20.90;92.40
60860;DHT22;46694;54.382;9.708;2022-09-01T09:08:59;20.90;92.40
60860;DHT22;46694;54.382;9.708;2022-09-01T09:15:38;20.80;92.50
60860;DHT22;46694;54.382;9.708;2022-09-01T09:19:04;20.80;92.60
60860;DHT22;46694;54.382;9.708;2022-09-01T09:21:57;20.70;92.60
60860;DHT22;46694;54.382;9.708;2022-09-01T09:27:37;20.70;92.70
60860;DHT22;46694;54.382;9.708;2022-09-01T09:30:24;21.20;92.50
60860;DHT22;46694;54.382;9.708;2022-09-01T09:33:06;21.90;91.80
60860;DHT22;46694;54.382;9.708;2022-09-01T09:35:49;22.60;90.90
60860;DHT22;46694;54.382;9.708;2022-09-01T09:38:28;23.40;89.70
60860;DHT22;46694;54.382;9.708;2022-09-01T09:41:16;24.10;86.90
60860;DHT22;46694;54.382;9.708;2022-09-01T09:44:03;24.70;83.70
60860;DHT22;46694;54.382;9.708;2022-09-01T09:46:45;25.10;81.20
60860;DHT22;46694;54.382;9.708;2022-09-01T09:49:29;25.60;79.40
60860;DHT22;46694;54.382;9.708;2022-09-01T09:56:18;26.30;76.20
60860;DHT22;46694;54.382;9.708;2022-09-01T09:59:00;26.60;74.80
60860;DHT22;46694;54.382;9.708;2022-09-01T10:08:08;26.60;68.90
60860;DHT22;46694;54.382;9.708;2022-09-01T10:10:53;26.50;68.00
60860;DHT22;46694;54.382;9.708;2022-09-01T10:13:33;26.30;67.90
60860;DHT22;46694;54.382;9.708;2022-09-01T10:16:22;26.40;67.30
60860;DHT22;46694;54.382;9.708;2022-09-01T10:19:07;26.50;66.00
60860;DHT22;46694;54.382;9.708;2022-09-01T10:21:50;26.50;65.20
60860;DHT22;46694;54.382;9.708;2022-09-01T10:24:33;26.50;64.50
60860;DHT22;46694;54.382;9.708;2022-09-01T10:27:23;26.20;64.40
60860;DHT22;46694;54.382;9.708;2022-09-01T10:30:17;25.80;64.60
60860;DHT22;46694;54.382;9.708;2022-09-01T10:32:59;25.30;65.30
60860;DHT22;46694;54.382;9.708;2022-09-01T10:35:43;24.90;66.80
60860;DHT22;46694;54.382;9.708;2022-09-01T10:38:27;24.90;67.40
60860;DHT22;46694;54.382;9.708;2022-09-01T10:41:07;25.30;66.40
60860;DHT22;46694;54.382;9.708;2022-09-01T10:43:48;25.50;65.30
60860;DHT22;46694;54.382;9.708;2022-09-01T10:46:40;25.80;64.50
60860;DHT22;46694;54.382;9.708;2022-09-01T10:52:08;26.20;62.10
60860;DHT22;46694;54.382;9.708;2022-09-01T10:54:56;26.10;61.10
60860;DHT22;46694;54.382;9.708;2022-09-01T10:57:51;26.30;60.80
60860;DHT22;46694;54.382;9.708;2022-09-01T11:08:47;26.70;58.30
60860;DHT22;46694;54.382;9.708;2022-09-01T11:14:52;26.70;57.90
60860;DHT22;46694;54.382;9.708;2022-09-01T11:17:54;26.50;57.60
60860;DHT22;46694;54.382;9.708;2022-09-01T11:20:39;26.40;57.40
60860;DHT22;46694;54.382;9.708;2022-09-01T11:32:35;26.20;57.00
60860;DHT22;46694;54.382;9.708;2022-09-01T11:35:21;26.20;56.60
60860;DHT22;46694;54.382;9.708;2022-09-01T11:38:04;26.10;56.60
60860;DHT22;46694;54.382;9.708;2022-09-01T11:40:54;26.00;57.10
60860;DHT22;46694;54.382;9.708;2022-09-01T11:43:35;26.10;57.20
60860;DHT22;46694;54.382;9.708;2022-09-01T11:46:26;26.10;57.00
60860;DHT22;46694;54.382;9.708;2022-09-01T11:49:28;26.10;56.80
60860;DHT22;46694;54.382;9.708;2022-09-01T11:52:15;26.00;56.80
60860;DHT22;46694;54.382;9.708;2022-09-01T11:54:57;26.00;56.90
60860;DHT22;46694;54.382;9.708;2022-09-01T11:57:39;26.10;56.50
60860;DHT22;46694;54.382;9.708;2022-09-01T12:00:27;26.10;56.20
60860;DHT22;46694;54.382;9.708;2022-09-01T12:03:28;26.10;55.80
60860;DHT22;46694;54.382;9.708;2022-09-01T12:06:10;26.00;55.80
60860;DHT22;46694;54.382;9.708;2022-09-01T12:08:54;25.80;56.30
60860;DHT22;46694;54.382;9.708;2022-09-01T12:11:40;25.80;56.30
60860;DHT22;46694;54.382;9.708;2022-09-01T12:14:21;25.70;56.10
60860;DHT22;46694;54.382;9.708;2022-09-01T12:17:03;25.60;56.00
60860;DHT22;46694;54.382;9.708;2022-09-01T12:19:44;25.60;56.00
60860;DHT22;46694;54.382;9.708;2022-09-01T12:22:24;25.70;55.70
60860;DHT22;46694;54.382;9.708;2022-09-01T12:25:03;25.60;55.30
60860;DHT22;46694;54.382;9.708;2022-09-01T12:27:43;25.60;55.40
60860;DHT22;46694;54.382;9.708;2022-09-01T12:30:24;25.50;55.50
60860;DHT22;46694;54.382;9.708;2022-09-01T12:33:10;25.50;55.90
60860;DHT22;46694;54.382;9.708;2022-09-01T12:39:19;25.30;55.20
60860;DHT22;46694;54.382;9.708;2022-09-01T12:53:14;25.20;54.90
60860;DHT22;46694;54.382;9.708;2022-09-01T12:56:15;25.10;55.00
60860;DHT22;46694;54.382;9.708;2022-09-01T12:59:24;25.10;55.00
60860;DHT22;46694;54.382;9.708;2022-09-01T13:02:27;25.10;55.10
60860;DHT22;46694;54.382;9.708;2022-09-01T13:05:34;25.10;55.10
60860;DHT22;46694;54.382;9.708;2022-09-01T13:08:20;25.10;54.90
60860;DHT22;46694;54.382;9.708;2022-09-01T13:11:06;25.00;54.70
60860;DHT22;46694;54.382;9.708;2022-09-01T13:13:47;24.80;54.50
60860;DHT22;46694;54.382;9.708;2022-09-01T13:16:27;24.70;54.80
60860;DHT22;46694;54.382;9.708;2022-09-01T13:19:06;24.60;55.00
60860;DHT22;46694;54.382;9.708;2022-09-01T13:21:46;24.50;55.10
60860;DHT22;46694;54.382;9.708;2022-09-01T13:24:26;24.40;55.60
60860;DHT22;46694;54.382;9.708;2022-09-01T13:27:05;24.40;55.70
60860;DHT22;46694;54.382;9.708;2022-09-01T13:29:46;24.30;55.70
60860;DHT22;46694;54.382;9.708;2022-09-01T13:32:25;24.30;55.90
60860;DHT22;46694;54.382;9.708;2022-09-01T13:35:05;24.20;56.00
60860;DHT22;46694;54.382;9.708;2022-09-01T13:37:46;24.20;56.30
60860;DHT22;46694;54.382;9.708;2022-09-01T13:40:26;24.20;56.10
60860;DHT22;46694;54.382;9.708;2022-09-01T13:43:05;24.10;55.70
60860;DHT22;46694;54.382;9.708;2022-09-01T13:45:45;24.10;55.40
60860;DHT22;46694;54.382;9.708;2022-09-01T13:48:24;24.10;55.10
60860;DHT22;46694;54.382;9.708;2022-09-01T13:51:06;24.00;54.90
60860;DHT22;46694;54.382;9.708;2022-09-01T13:53:51;24.00;55.00
60860;DHT22;46694;54.382;9.708;2022-09-01T13:56:30;24.00;54.80
60860;DHT22;46694;54.382;9.708;2022-09-01T13:59:10;23.80;55.10
60860;DHT22;46694;54.382;9.708;2022-09-01T14:01:50;23.70;55.40
60860;DHT22;46694;54.382;9.708;2022-09-01T14:04:29;23.70;55.60
60860;DHT22;46694;54.382;9.708;2022-09-01T14:10:35;23.60;56.00
60860;DHT22;46694;54.382;9.708;2022-09-01T14:13:20;23.60;55.80
60860;DHT22;46694;54.382;9.708;2022-09-01T14:16:01;23.50;55.30
60860;DHT22;46694;54.382;9.708;2022-09-01T14:18:48;23.40;55.40
60860;DHT22;46694;54.382;9.708;2022-09-01T14:21:28;23.30;56.00
60860;DHT22;46694;54.382;9.708;2022-09-01T14:24:08;23.20;56.10
60860;DHT22;46694;54.382;9.708;2022-09-01T14:26:47;23.10;56.10
60860;DHT22;46694;54.382;9.708;2022-09-01T14:29:28;22.90;56.20
60860;DHT22;46694;54.382;9.708;2022-09-01T14:32:08;22.80;56.30
60860;DHT22;46694;54.382;9.708;2022-09-01T14:34:48;22.60;56.30
60860;DHT22;46694;54.382;9.708;2022-09-01T14:37:28;22.60;56.60
60860;DHT22;46694;54.382;9.708;2022-09-01T14:40:09;22.50;56.40
60860;DHT22;46694;54.382;9.708;2022-09-01T14:42:53;22.40;56.70
60860;DHT22;46694;54.382;9.708;2022-09-01T14:45:32;22.40;56.70
60860;DHT22;46694;54.382;9.708;2022-09-01T14:48:12;22.30;56.60
60860;DHT22;46694;54.382;9.708;2022-09-01T14:50:56;22.20;56.70
60860;DHT22;46694;54.382;9.708;2022-09-01T14:53:36;22.30;56.90
60860;DHT22;46694;54.382;9.708;2022-09-01T14:56:16;22.30;56.80
60860;DHT22;46694;54.382;9.708;2022-09-01T14:58:57;22.20;56.70
60860;DHT22;46694;54.382;9.708;2022-09-01T15:01:39;22.10;56.30
60860;DHT22;46694;54.382;9.708;2022-09-01T15:04:18;22.10;56.40
60860;DHT22;46694;54.382;9.708;2022-09-01T15:06:58;22.10;56.60
60860;DHT22;46694;54.382;9.708;2022-09-01T15:09:38;22.10;56.70
60860;DHT22;46694;54.382;9.708;2022-09-01T15:12:17;22.00;57.30
60860;DHT22;46694;54.382;9.708;2022-09-01T15:15:00;22.00;57.90
60860;DHT22;46694;54.382;9.708;2022-09-01T15:17:41;22.00;57.90
60860;DHT22;46694;54.382;9.708;2022-09-01T15:20:21;22.00;58.00
60860;DHT22;46694;54.382;9.708;2022-09-01T15:23:23;22.00;58.30
60860;DHT22;46694;54.382;9.708;2022-09-01T15:26:03;21.90;58.30
60860;DHT22;46694;54.382;9.708;2022-09-01T15:28:43;21.80;58.10
60860;DHT22;46694;54.382;9.708;2022-09-01T15:31:25;21.70;58.20
60860;DHT22;46694;54.382;9.708;2022-09-01T15:34:08;21.70;57.80
60860;DHT22;46694;54.382;9.708;2022-09-01T15:36:47;21.60;57.20
60860;DHT22;46694;54.382;9.708;2022-09-01T15:39:27;21.60;56.60
60860;DHT22;46694;54.382;9.708;2022-09-01T15:42:08;21.60;56.60
60860;DHT22;46694;54.382;9.708;2022-09-01T15:44:47;21.50;56.80
60860;DHT22;46694;54.382;9.708;2022-09-01T15:47:29;21.40;56.80
60860;DHT22;46694;54.382;9.708;2022-09-01T15:50:11;21.30;56.40
60860;DHT22;46694;54.382;9.708;2022-09-01T15:55:42;21.10;56.40
60860;DHT22;46694;54.382;9.708;2022-09-01T15:58:23;21.00;56.70
60860;DHT22;46694;54.382;9.708;2022-09-01T16:01:02;21.00;56.80
60860;DHT22;46694;54.382;9.708;2022-09-01T16:03:42;21.00;56.70
60860;DHT22;46694;54.382;9.708;2022-09-01T16:06:24;20.90;56.50
60860;DHT22;46694;54.382;9.708;2022-09-01T16:09:05;20.90;56.50
60860;DHT22;46694;54.382;9.708;2022-09-01T16:11:45;20.80;56.50
60860;DHT22;46694;54.382;9.708;2022-09-01T16:14:25;20.70;56.80
60860;DHT22;46694;54.382;9.708;2022-09-01T16:20:53;20.70;57.40
60860;DHT22;46694;54.382;9.708;2022-09-01T16:23:43;20.70;57.70
60860;DHT22;46694;54.382;9.708;2022-09-01T16:26:27;20.60;57.80
60860;DHT22;46694;54.382;9.708;2022-09-01T16:29:32;20.60;58.10
60860;DHT22;46694;54.382;9.708;2022-09-01T16:32:17;20.50;59.00
60860;DHT22;46694;54.382;9.708;2022-09-01T16:35:00;20.40;59.50
60860;DHT22;46694;54.382;9.708;2022-09-01T16:41:26;20.40;60.70
60860;DHT22;46694;54.382;9.708;2022-09-01T16:47:38;20.30;62.10
60860;DHT22;46694;54.382;9.708;2022-09-01T17:00:20;20.00;65.90
60860;DHT22;46694;54.382;9.708;2022-09-01T17:03:20;19.90;66.70
60860;DHT22;46694;54.382;9.708;2022-09-01T17:06:18;19.80;67.70
60860;DHT22;46694;54.382;9.708;2022-09-01T17:09:08;19.80;68.30
60860;DHT22;46694;54.382;9.708;2022-09-01T17:11:53;19.70;68.90
60860;DHT22;46694;54.382;9.708;2022-09-01T17:14:43;19.70;69.30
60860;DHT22;46694;54.382;9.708;2022-09-01T17:17:34;19.60;69.70
60860;DHT22;46694;54.382;9.708;2022-09-01T17:20:28;19.60;70.10
60860;DHT22;46694;54.382;9.708;2022-09-01T17:23:12;19.50;70.30
60860;DHT22;46694;54.382;9.708;2022-09-01T17:26:00;19.50;70.80
60860;DHT22;46694;54.382;9.708;2022-09-01T17:28:51;19.40;71.20
60860;DHT22;46694;54.382;9.708;2022-09-01T17:32:09;19.30;71.50
60860;DHT22;46694;54.382;9.708;2022-09-01T17:38:19;19.20;72.40
60860;DHT22;46694;54.382;9.708;2022-09-01T17:44:12;19.10;73.20
60860;DHT22;46694;54.382;9.708;2022-09-01T17:47:35;19.10;73.80
60860;DHT22;46694;54.382;9.708;2022-09-01T17:51:02;19.00;74.10
60860;DHT22;46694;54.382;9.708;2022-09-01T17:53:52;19.00;74.40
60860;DHT22;46694;54.382;9.708;2022-09-01T17:57:23;18.90;74.80
60860;DHT22;46694;54.382;9.708;2022-09-01T18:00:20;18.80;75.20
60860;DHT22;46694;54.382;9.708;2022-09-01T18:09:29;18.60;76.40
60860;DHT22;46694;54.382;9.708;2022-09-01T18:12:18;18.50;76.70
60860;DHT22;46694;54.382;9.708;2022-09-01T18:15:19;18.50;77.20
60860;DHT22;46694;54.382;9.708;2022-09-01T18:18:09;18.40;77.80
60860;DHT22;46694;54.382;9.708;2022-09-01T18:21:04;18.30;78.30
60860;DHT22;46694;54.382;9.708;2022-09-01T18:23:45;18.30;78.90
60860;DHT22;46694;54.382;9.708;2022-09-01T18:26:30;18.20;79.30
60860;DHT22;46694;54.382;9.708;2022-09-01T18:29:10;18.10;79.90
60860;DHT22;46694;54.382;9.708;2022-09-01T18:47:16;17.80;82.70
60860;DHT22;46694;54.382;9.708;2022-09-01T18:50:27;17.80;83.10
60860;DHT22;46694;54.382;9.708;2022-09-01T19:05:26;17.50;85.40
60860;DHT22;46694;54.382;9.708;2022-09-01T19:20:14;17.40;88.00
60860;DHT22;46694;54.382;9.708;2022-09-01T19:23:15;17.30;88.50
60860;DHT22;46694;54.382;9.708;2022-09-01T19:26:05;17.30;88.90
60860;DHT22;46694;54.382;9.708;2022-09-01T19:28:58;17.30;89.50
60860;DHT22;46694;54.382;9.708;2022-09-01T19:31:43;17.30;90.00
60860;DHT22;46694;54.382;9.708;2022-09-01T19:34:42;17.20;90.10
60860;DHT22;46694;54.382;9.708;2022-09-01T19:37:24;17.20;90.40
60860;DHT22;46694;54.382;9.708;2022-09-01T19:40:05;17.20;90.60
60860;DHT22;46694;54.382;9.708;2022-09-01T19:43:03;17.20;90.80
60860;DHT22;46694;54.382;9.708;2022-09-01T19:58:27;17.10;91.30
60860;DHT22;46694;54.382;9.708;2022-09-01T20:04:37;17.00;91.60